createdAt,value
2022-07-25T00:03:41.979Z,19.50
2022-07-25T00:07:39.979Z,19.50
2022-07-25T00:11:37.891Z,19.40
2022-07-25T00:15:35.021Z,19.40
2022-07-25T00:19:32.104Z,19.30
2022-07-25T00:23:29.331Z,19.20
2022-07-25T00:27:26.616Z,19.10
2022-07-25T00:31:26.191Z,19.10
2022-07-25T00:35:23.273Z,19.00
2022-07-25T00:39:20.363Z,19.00
2022-07-25T00:43:17.432Z,18.90
2022-07-25T00:47:14.499Z,18.90
2022-07-25T00:51:12.086Z,18.80
2022-07-25T00:55:09.953Z,18.70
2022-07-25T00:59:07.292Z,18.60
2022-07-25T01:03:07.134Z,18.50
2022-07-25T01:07:04.586Z,18.50
2022-07-25T01:11:01.937Z,18.40
2022-07-25T01:14:59.232Z,18.40
2022-07-25T01:18:56.449Z,18.30
2022-07-25T01:22:54.682Z,18.30
2022-07-25T01:26:52.026Z,18.20
2022-07-25T01:30:49.516Z,18.20
2022-07-25T01:34:46.545Z,18.10
2022-07-25T01:38:43.709Z,18.10
2022-07-25T01:42:41.716Z,18.10
2022-07-25T01:46:38.794Z,18.10
2022-07-25T01:50:36.004Z,18.10
2022-07-25T01:54:33.085Z,18.00
2022-07-25T01:58:30.197Z,18.10
2022-07-25T02:02:27.504Z,18.00
2022-07-25T02:06:24.584Z,18.00
2022-07-25T02:10:21.570Z,17.90
2022-07-25T02:14:18.721Z,17.80
2022-07-25T02:18:16.370Z,17.80
2022-07-25T02:22:13.391Z,17.70
2022-07-25T02:26:13.217Z,17.60
2022-07-25T02:30:10.911Z,17.50
2022-07-25T02:34:08.500Z,17.50
2022-07-25T02:38:05.794Z,17.50
2022-07-25T02:42:02.952Z,17.40
2022-07-25T02:46:00.212Z,17.40
2022-07-25T02:49:57.482Z,17.30
2022-07-25T02:53:57.904Z,17.30
2022-07-25T02:57:55.707Z,17.30
2022-07-25T03:01:52.757Z,17.20
2022-07-25T03:05:51.959Z,17.20
2022-07-25T03:09:49.194Z,17.20
2022-07-25T03:13:46.763Z,17.10
2022-07-25T03:17:43.929Z,17.00
2022-07-25T03:21:41.054Z,17.00
2022-07-25T03:25:38.168Z,17.00
2022-07-25T03:29:35.336Z,16.80
2022-07-25T03:33:32.366Z,16.80
2022-07-25T03:37:29.552Z,16.80
2022-07-25T03:41:28.010Z,16.80
2022-07-25T03:45:25.774Z,16.70
2022-07-25T03:49:23.065Z,16.70
2022-07-25T03:53:20.073Z,16.70
2022-07-25T03:57:17.130Z,16.70
2022-07-25T04:01:14.375Z,16.70
2022-07-25T04:05:11.587Z,16.80
2022-07-25T04:09:10.877Z,16.80
2022-07-25T04:13:10.095Z,16.80
2022-07-25T04:17:07.255Z,16.80
2022-07-25T04:21:06.392Z,16.80
2022-07-25T04:25:04.553Z,16.80
2022-07-25T04:29:03.701Z,16.80
2022-07-25T04:33:00.861Z,16.80
2022-07-25T04:36:57.871Z,16.80
2022-07-25T04:40:54.992Z,16.80
2022-07-25T04:44:51.990Z,16.80
2022-07-25T04:48:50.526Z,16.80
2022-07-25T04:52:47.783Z,16.90
2022-07-25T04:56:44.826Z,16.90
2022-07-25T05:00:42.043Z,17.00
2022-07-25T05:04:44.795Z,17.10
2022-07-25T05:08:42.413Z,17.20
2022-07-25T05:12:39.573Z,17.30
2022-07-25T05:16:36.656Z,17.40
2022-07-25T05:20:33.778Z,17.50
2022-07-25T05:24:35.197Z,17.70
2022-07-25T05:28:32.281Z,17.80
2022-07-25T05:32:29.387Z,18.00
2022-07-25T05:36:26.392Z,18.20
2022-07-25T05:40:24.347Z,18.30
2022-07-25T05:44:21.418Z,18.50
2022-07-25T05:48:18.598Z,18.60
2022-07-25T05:52:15.721Z,18.80
2022-07-25T05:56:12.704Z,18.90
2022-07-25T06:00:12.817Z,19.10
2022-07-25T06:04:10.348Z,19.30
2022-07-25T06:08:07.412Z,19.50
2022-07-25T06:12:05.081Z,19.70
2022-07-25T06:16:03.408Z,19.90
2022-07-25T06:20:00.777Z,20.20
2022-07-25T06:23:57.823Z,20.40
2022-07-25T06:27:54.813Z,20.70
2022-07-25T06:31:51.948Z,21.00
2022-07-25T06:35:51.245Z,21.20
2022-07-25T06:39:48.362Z,21.40
2022-07-25T06:43:45.345Z,21.70
2022-07-25T06:47:45.003Z,21.90
2022-07-25T06:51:42.016Z,22.10
2022-07-25T06:55:39.180Z,22.30
2022-07-25T06:59:36.335Z,22.50
2022-07-25T07:03:38.356Z,22.70
2022-07-25T07:07:35.524Z,22.90
2022-07-25T07:11:34.858Z,23.20
2022-07-25T07:15:34.385Z,23.40
2022-07-25T07:19:31.705Z,23.50
2022-07-25T07:23:32.313Z,23.90
2022-07-25T07:27:30.082Z,24.20
2022-07-25T07:31:27.146Z,24.30
2022-07-25T07:35:25.467Z,24.50
2022-07-25T07:39:24.587Z,24.60
2022-07-25T07:43:25.039Z,24.80
2022-07-25T07:47:26.104Z,25.00
2022-07-25T07:51:23.193Z,25.20
2022-07-25T07:55:39.768Z,25.30
2022-07-25T07:59:36.895Z,25.50
2022-07-25T08:03:34.107Z,25.70
2022-07-25T08:07:31.276Z,26.00
2022-07-25T08:11:28.288Z,26.30
2022-07-25T08:15:26.445Z,26.80
2022-07-25T08:19:23.431Z,27.70
2022-07-25T08:23:20.643Z,28.50
2022-07-25T08:27:17.721Z,28.90
2022-07-25T08:31:14.855Z,29.30
2022-07-25T08:35:12.038Z,30.30
2022-07-25T08:39:09.049Z,30.70
2022-07-25T08:43:06.315Z,31.00
2022-07-25T08:47:03.793Z,31.30
2022-07-25T08:51:02.722Z,31.50
2022-07-25T08:54:59.897Z,31.80
2022-07-25T08:58:59.020Z,31.90
2022-07-25T09:03:06.542Z,32.20
2022-07-25T09:07:08.021Z,32.50
2022-07-25T09:11:05.554Z,32.90
2022-07-25T09:15:02.637Z,32.60
2022-07-25T09:19:21.329Z,32.80
2022-07-25T09:23:32.179Z,32.60
2022-07-25T09:27:34.475Z,32.60
2022-07-25T09:31:35.256Z,33.20
2022-07-25T09:35:38.343Z,33.70
2022-07-25T09:39:47.384Z,33.80
2022-07-25T09:43:45.619Z,34.40
2022-07-25T09:47:57.559Z,34.30
2022-07-25T09:51:55.294Z,34.60
2022-07-25T09:55:57.151Z,34.90
2022-07-25T09:59:54.666Z,35.00
2022-07-25T10:04:01.237Z,34.70
2022-07-25T10:07:58.791Z,35.10
2022-07-25T10:12:08.678Z,34.90
2022-07-25T10:16:20.531Z,35.10
2022-07-25T10:20:28.696Z,35.10
2022-07-25T10:24:35.021Z,35.60
2022-07-25T10:28:45.376Z,35.50
2022-07-25T10:33:04.497Z,35.40
2022-07-25T10:37:18.529Z,35.40
2022-07-25T10:41:19.297Z,35.90
2022-07-25T10:45:18.350Z,36.50
2022-07-25T10:49:32.265Z,37.10
2022-07-25T10:53:43.955Z,37.70
2022-07-25T10:57:55.012Z,37.70
2022-07-25T11:01:59.227Z,38.70
2022-07-25T11:05:56.342Z,38.70
2022-07-25T11:10:02.348Z,38.40
2022-07-25T11:13:59.520Z,38.90
2022-07-25T11:17:56.796Z,38.20
2022-07-25T11:21:57.805Z,40.00
2022-07-25T11:26:11.577Z,39.10
2022-07-25T11:30:22.121Z,39.70
2022-07-25T11:34:24.543Z,39.20
2022-07-25T11:38:21.676Z,38.70
2022-07-25T11:42:20.200Z,39.10
2022-07-25T11:46:18.561Z,39.80
2022-07-25T11:50:16.070Z,40.10
2022-07-25T11:54:13.861Z,40.10
2022-07-25T11:58:13.333Z,40.00
2022-07-25T12:02:26.580Z,40.00
2022-07-25T12:06:30.031Z,40.70
2022-07-25T12:10:36.380Z,40.40
2022-07-25T12:14:44.013Z,40.50
2022-07-25T12:18:41.501Z,40.10
2022-07-25T12:22:38.633Z,40.80
2022-07-25T12:26:36.079Z,40.50
2022-07-25T12:30:34.324Z,39.40
2022-07-25T12:34:31.624Z,39.00
2022-07-25T12:38:29.203Z,39.30
2022-07-25T12:42:28.915Z,40.10
2022-07-25T12:46:26.051Z,40.80
2022-07-25T12:50:26.007Z,41.10
2022-07-25T12:54:23.226Z,40.90
2022-07-25T12:58:21.241Z,40.30
2022-07-25T13:02:18.624Z,40.50
2022-07-25T13:06:15.794Z,40.70
2022-07-25T13:10:12.979Z,41.20
2022-07-25T13:14:10.117Z,41.40
2022-07-25T13:18:07.482Z,42.00
2022-07-25T13:22:04.508Z,42.30
2022-07-25T13:26:01.729Z,42.40
2022-07-25T13:29:58.736Z,41.90
2022-07-25T13:33:55.795Z,41.20
2022-07-25T13:37:52.850Z,40.20
2022-07-25T13:41:50.315Z,40.90
2022-07-25T13:45:47.425Z,40.80
2022-07-25T13:49:44.532Z,40.50
2022-07-25T13:53:42.596Z,40.50
2022-07-25T13:57:39.713Z,41.30
2022-07-25T14:01:36.895Z,42.00
2022-07-25T14:05:34.745Z,42.60
2022-07-25T14:09:31.693Z,42.40
2022-07-25T14:13:28.656Z,42.80
2022-07-25T14:17:29.947Z,42.40
2022-07-25T14:21:27.375Z,40.90
2022-07-25T14:25:24.475Z,40.60
2022-07-25T14:29:25.947Z,41.10
2022-07-25T14:33:28.023Z,41.70
2022-07-25T14:37:25.276Z,41.40
2022-07-25T14:41:22.619Z,40.50
2022-07-25T14:45:21.968Z,41.20
2022-07-25T14:49:19.375Z,41.60
2022-07-25T14:53:16.503Z,41.50
2022-07-25T14:57:13.664Z,41.40
2022-07-25T15:01:11.500Z,41.40
2022-07-25T15:05:09.064Z,41.20
2022-07-25T15:09:06.801Z,41.40
2022-07-25T15:13:28.676Z,41.80
2022-07-25T15:17:21.124Z,41.20
2022-07-25T15:21:18.234Z,40.50
2022-07-25T15:25:59.628Z,40.20
2022-07-25T15:29:32.215Z,39.50
2022-07-25T15:33:29.452Z,39.50
2022-07-25T15:37:28.134Z,40.10
2022-07-25T15:41:25.199Z,40.30
2022-07-25T15:45:38.025Z,40.60
2022-07-25T15:49:36.991Z,41.40
2022-07-25T15:53:34.045Z,41.20
2022-07-25T15:57:31.332Z,41.20
2022-07-25T16:01:28.384Z,40.70
2022-07-25T16:05:26.305Z,40.20
2022-07-25T16:09:23.880Z,39.80
2022-07-25T16:13:20.948Z,39.20
2022-07-25T16:17:18.403Z,38.60
2022-07-25T16:21:15.401Z,37.40
2022-07-25T16:25:12.678Z,36.60
2022-07-25T16:29:10.415Z,35.70
2022-07-25T16:33:09.274Z,34.90
2022-07-25T16:37:06.334Z,34.50
2022-07-25T16:41:03.476Z,34.10
2022-07-25T16:45:00.477Z,33.70
2022-07-25T16:48:57.607Z,33.40
2022-07-25T16:52:54.947Z,33.10
2022-07-25T16:56:54.820Z,32.90
2022-07-25T17:00:53.589Z,32.60
2022-07-25T17:04:50.598Z,32.50
2022-07-25T17:08:47.652Z,32.30
2022-07-25T17:12:44.621Z,32.10
2022-07-25T17:16:42.001Z,32.00
2022-07-25T17:20:39.019Z,31.90
2022-07-25T17:24:36.918Z,31.80
2022-07-25T17:28:34.988Z,31.60
2022-07-25T17:32:32.058Z,31.20
2022-07-25T17:36:29.174Z,30.90
2022-07-25T17:40:26.492Z,30.70
2022-07-25T17:44:23.418Z,31.20
2022-07-25T17:48:20.447Z,31.50
2022-07-25T17:52:17.997Z,31.70
2022-07-25T17:56:15.081Z,31.10
2022-07-25T18:00:13.736Z,30.60
2022-07-25T18:04:11.357Z,30.50
2022-07-25T18:08:10.464Z,30.50
2022-07-25T18:12:07.767Z,30.50
2022-07-25T18:16:05.347Z,30.60
2022-07-25T18:20:03.913Z,30.50
2022-07-25T18:24:01.007Z,30.40
2022-07-25T18:27:58.041Z,30.20
2022-07-25T18:31:55.013Z,30.10
2022-07-25T18:35:52.189Z,30.00
2022-07-25T18:39:49.178Z,29.90
2022-07-25T18:43:46.636Z,29.90
2022-07-25T18:47:45.227Z,29.70
2022-07-25T18:51:42.297Z,29.50
2022-07-25T18:55:39.417Z,29.40
2022-07-25T18:59:36.605Z,29.10
2022-07-25T19:03:34.954Z,28.90
2022-07-25T19:07:33.629Z,28.80
2022-07-25T19:11:30.733Z,28.60
2022-07-25T19:15:28.566Z,28.50
2022-07-25T19:19:27.010Z,28.40
2022-07-25T19:23:24.260Z,28.30
2022-07-25T19:27:23.899Z,28.10
2022-07-25T19:31:21.096Z,28.10
2022-07-25T19:35:25.847Z,28.00
2022-07-25T19:39:24.604Z,27.90
2022-07-25T19:43:21.744Z,27.70
2022-07-25T19:47:18.827Z,27.70
2022-07-25T19:51:15.847Z,27.70
2022-07-25T19:55:12.944Z,27.70
2022-07-25T19:59:10.187Z,27.70
2022-07-25T20:03:07.300Z,27.70
2022-07-25T20:07:04.537Z,27.70
2022-07-25T20:11:01.587Z,27.60
2022-07-25T20:14:58.602Z,27.50
2022-07-25T20:18:55.777Z,27.30
2022-07-25T20:22:53.364Z,27.30
2022-07-25T20:26:50.521Z,27.10
2022-07-25T20:30:47.617Z,27.00
2022-07-25T20:34:45.431Z,27.00
2022-07-25T20:38:42.453Z,27.00
2022-07-25T20:42:40.991Z,26.60
2022-07-25T20:46:39.115Z,26.00
2022-07-25T20:50:37.670Z,25.60
2022-07-25T20:54:36.770Z,25.30
2022-07-25T20:58:33.928Z,25.10
2022-07-25T21:02:30.957Z,25.00
2022-07-25T21:06:29.236Z,24.90
2022-07-25T21:10:28.335Z,24.80
2022-07-25T21:14:26.827Z,24.80
2022-07-25T21:18:23.827Z,24.80
2022-07-25T21:22:20.986Z,24.80
2022-07-25T21:26:18.831Z,24.70
2022-07-25T21:30:15.955Z,24.50
2022-07-25T21:34:12.962Z,24.50
2022-07-25T21:38:10.031Z,24.40
2022-07-25T21:42:09.973Z,24.40
2022-07-25T21:46:07.125Z,24.50
2022-07-25T21:50:24.826Z,24.80
2022-07-25T21:54:22.176Z,25.20
2022-07-25T21:58:21.607Z,25.40
2022-07-25T22:02:20.067Z,25.60
2022-07-25T22:06:17.134Z,25.60
2022-07-25T22:10:16.786Z,25.60
2022-07-25T22:14:15.664Z,25.60
2022-07-25T22:18:12.717Z,25.50
2022-07-25T22:22:09.836Z,25.40
2022-07-25T22:26:06.824Z,25.30
2022-07-25T22:30:05.733Z,25.20
2022-07-25T22:34:02.878Z,25.20
2022-07-25T22:37:59.921Z,25.00
2022-07-25T22:41:57.029Z,25.00
2022-07-25T22:45:54.069Z,24.80
2022-07-25T22:49:51.172Z,24.80
2022-07-25T22:53:48.220Z,24.60
2022-07-25T22:57:45.202Z,24.60
2022-07-25T23:01:42.279Z,24.50
2022-07-25T23:05:40.704Z,24.30
2022-07-25T23:09:37.926Z,24.20
2022-07-25T23:13:36.471Z,24.20
2022-07-25T23:17:33.615Z,24.10
2022-07-25T23:21:30.688Z,24.00
2022-07-25T23:25:27.759Z,24.00
2022-07-25T23:29:24.845Z,23.90
2022-07-25T23:33:25.998Z,23.90
2022-07-25T23:37:23.111Z,23.80
2022-07-25T23:41:20.379Z,23.70
2022-07-25T23:45:17.396Z,23.70
2022-07-25T23:49:16.127Z,23.60
2022-07-25T23:53:13.287Z,23.50
2022-07-25T23:57:10.757Z,23.50
